sensor_id;sensor_type;location;lat;lon;timestamp;pressure;altitude;pressure_sealevel;temperature;humidity
78800;BME280;68148;55.328;86.106;2024-01-15T00:00:50;100327.50;;;-18.67;64.93
78800;BME280;68148;55.328;86.106;2024-01-15T00:03:16;100340.03;;;-18.80;64.66
78800;BME280;68148;55.328;86.106;2024-01-15T00:05:42;100340.88;;;-18.82;64.90
78800;BME280;68148;55.328;86.106;2024-01-15T00:08:08;100335.09;;;-18.70;65.34
78800;BME280;68148;55.328;86.106;2024-01-15T00:10:33;100354.34;;;-18.74;64.58
78800;BME280;68148;55.328;86.106;2024-01-15T00:13:00;100367.72;;;-18.81;65.16
78800;BME280;68148;55.328;86.106;2024-01-15T00:15:26;100359.34;;;-18.76;64.98
78800;BME280;68148;55.328;86.106;2024-01-15T00:17:52;100369.38;;;-18.82;65.00
78800;BME280;68148;55.328;86.106;2024-01-15T00:20:18;100376.91;;;-18.85;64.86
78800;BME280;68148;55.328;86.106;2024-01-15T00:22:44;100378.53;;;-18.88;65.31
78800;BME280;68148;55.328;86.106;2024-01-15T00:25:10;100401.19;;;-18.91;64.58
78800;BME280;68148;55.328;86.106;2024-01-15T00:27:37;100411.25;;;-18.91;65.01
78800;BME280;68148;55.328;86.106;2024-01-15T00:30:03;100420.41;;;-18.98;64.75
78800;BME280;68148;55.328;86.106;2024-01-15T00:32:29;100425.38;;;-19.01;64.94
78800;BME280;68148;55.328;86.106;2024-01-15T00:34:55;100432.13;;;-19.00;64.15
78800;BME280;68148;55.328;86.106;2024-01-15T00:37:20;100438.84;;;-19.01;64.96
78800;BME280;68148;55.328;86.106;2024-01-15T00:39:46;100440.47;;;-19.03;64.52
78800;BME280;68148;55.328;86.106;2024-01-15T00:42:13;100453.00;;;-19.06;64.35
78800;BME280;68148;55.328;86.106;2024-01-15T00:44:38;100466.50;;;-19.01;64.53
78800;BME280;68148;55.328;86.106;2024-01-15T00:52:32;100497.44;;;-19.08;64.44
78800;BME280;68148;55.328;86.106;2024-01-15T00:54:58;100504.09;;;-19.11;64.45
78800;BME280;68148;55.328;86.106;2024-01-15T00:57:44;100507.50;;;-19.09;64.39
78800;BME280;68148;55.328;86.106;2024-01-15T01:00:10;100508.31;;;-19.10;64.60
78800;BME280;68148;55.328;86.106;2024-01-15T01:02:36;100505.81;;;-19.09;64.33
78800;BME280;68148;55.328;86.106;2024-01-15T01:05:02;100508.34;;;-19.09;64.11
78800;BME280;68148;55.328;86.106;2024-01-15T01:07:28;100509.13;;;-19.13;64.04
78800;BME280;68148;55.328;86.106;2024-01-15T01:09:54;100511.59;;;-19.16;64.18
78800;BME280;68148;55.328;86.106;2024-01-15T01:12:20;100514.13;;;-19.16;64.28
78800;BME280;68148;55.328;86.106;2024-01-15T01:14:46;100522.47;;;-19.18;64.55
78800;BME280;68148;55.328;86.106;2024-01-15T01:17:12;100527.53;;;-19.15;64.92
78800;BME280;68148;55.328;86.106;2024-01-15T01:19:37;100529.22;;;-19.14;64.72
78800;BME280;68148;55.328;86.106;2024-01-15T01:22:03;100540.94;;;-19.16;64.65
78800;BME280;68148;55.328;86.106;2024-01-15T01:24:29;100560.97;;;-19.24;64.40
78800;BME280;68148;55.328;86.106;2024-01-15T01:26:56;100554.31;;;-19.20;64.21
78800;BME280;68148;55.328;86.106;2024-01-15T01:29:21;100558.44;;;-19.26;64.06
78800;BME280;68148;55.328;86.106;2024-01-15T01:31:47;100570.13;;;-19.29;63.83
78800;BME280;68148;55.328;86.106;2024-01-15T01:34:14;100585.19;;;-19.29;63.57
78800;BME280;68148;55.328;86.106;2024-01-15T01:36:40;100581.00;;;-19.30;63.96
78800;BME280;68148;55.328;86.106;2024-01-15T01:39:06;100592.59;;;-19.40;64.00
78800;BME280;68148;55.328;86.106;2024-01-15T01:41:32;100601.03;;;-19.36;64.36
78800;BME280;68148;55.328;86.106;2024-01-15T01:43:58;100593.53;;;-19.33;64.36
78800;BME280;68148;55.328;86.106;2024-01-15T01:46:27;100601.91;;;-19.34;64.94
78800;BME280;68148;55.328;86.106;2024-01-15T01:48:54;100607.72;;;-19.35;64.81
78800;BME280;68148;55.328;86.106;2024-01-15T01:51:23;100616.94;;;-19.37;64.45
78800;BME280;68148;55.328;86.106;2024-01-15T01:53:50;100626.16;;;-19.38;64.79
78800;BME280;68148;55.328;86.106;2024-01-15T01:56:17;100627.06;;;-19.33;64.72
78800;BME280;68148;55.328;86.106;2024-01-15T01:58:44;100628.56;;;-19.45;65.02
78800;BME280;68148;55.328;86.106;2024-01-15T02:01:14;100635.38;;;-19.38;65.38
78800;BME280;68148;55.328;86.106;2024-01-15T02:03:41;100649.59;;;-19.39;65.20
78800;BME280;68148;55.328;86.106;2024-01-15T02:06:07;100647.06;;;-19.40;65.83
78800;BME280;68148;55.328;86.106;2024-01-15T02:08:34;100655.41;;;-19.43;65.55
78800;BME280;68148;55.328;86.106;2024-01-15T02:10:59;100672.88;;;-19.52;65.99
78800;BME280;68148;55.328;86.106;2024-01-15T02:13:25;100675.28;;;-19.57;65.85
78800;BME280;68148;55.328;86.106;2024-01-15T02:15:51;100684.56;;;-19.53;66.36
78800;BME280;68148;55.328;86.106;2024-01-15T02:18:17;100676.25;;;-19.50;66.48
78800;BME280;68148;55.328;86.106;2024-01-15T02:20:43;100695.56;;;-19.48;66.53
78800;BME280;68148;55.328;86.106;2024-01-15T02:23:13;100695.59;;;-19.44;67.10
78800;BME280;68148;55.328;86.106;2024-01-15T02:25:41;100699.84;;;-19.40;67.55
78800;BME280;68148;55.328;86.106;2024-01-15T02:28:09;100709.88;;;-19.42;68.36
78800;BME280;68148;55.328;86.106;2024-01-15T02:30:39;100705.69;;;-19.43;68.16
78800;BME280;68148;55.328;86.106;2024-01-15T02:33:08;100710.03;;;-19.33;68.00
78800;BME280;68148;55.328;86.106;2024-01-15T02:35:36;100700.59;;;-19.46;68.51
78800;BME280;68148;55.328;86.106;2024-01-15T02:38:03;100701.38;;;-19.50;68.58
78800;BME280;68148;55.328;86.106;2024-01-15T02:40:30;100712.19;;;-19.56;68.89
78800;BME280;68148;55.328;86.106;2024-01-15T02:42:56;100729.81;;;-19.53;68.51
78800;BME280;68148;55.328;86.106;2024-01-15T02:45:23;100734.03;;;-19.52;68.47
78800;BME280;68148;55.328;86.106;2024-01-15T02:47:49;100743.97;;;-19.61;68.78
78800;BME280;68148;55.328;86.106;2024-01-15T02:50:15;100743.13;;;-19.58;68.66
78800;BME280;68148;55.328;86.106;2024-01-15T02:52:42;100726.38;;;-19.61;68.91
78800;BME280;68148;55.328;86.106;2024-01-15T02:55:08;100736.53;;;-19.52;68.81
78800;BME280;68148;55.328;86.106;2024-01-15T02:57:34;100734.03;;;-19.52;68.77
78800;BME280;68148;55.328;86.106;2024-01-15T03:00:00;100743.97;;;-19.58;68.85
78800;BME280;68148;55.328;86.106;2024-01-15T03:02:26;100746.69;;;-19.45;68.28
78800;BME280;68148;55.328;86.106;2024-01-15T03:04:52;100756.59;;;-19.56;68.18
78800;BME280;68148;55.328;86.106;2024-01-15T03:07:19;100767.34;;;-19.65;68.25
78800;BME280;68148;55.328;86.106;2024-01-15T03:09:46;100758.03;;;-19.70;67.78
78800;BME280;68148;55.328;86.106;2024-01-15T03:12:12;100764.91;;;-19.57;67.98
78800;BME280;68148;55.328;86.106;2024-01-15T03:14:38;100772.44;;;-19.59;67.50
78800;BME280;68148;55.328;86.106;2024-01-15T03:17:04;100788.31;;;-19.64;67.66
78800;BME280;68148;55.328;86.106;2024-01-15T03:19:35;100786.69;;;-19.58;67.69
78800;BME280;68148;55.328;86.106;2024-01-15T03:22:00;100784.13;;;-19.64;67.52
78800;BME280;68148;55.328;86.106;2024-01-15T03:24:26;100784.94;;;-19.65;67.25
78800;BME280;68148;55.328;86.106;2024-01-15T03:26:52;100786.69;;;-19.59;67.20
78800;BME280;68148;55.328;86.106;2024-01-15T03:29:18;100799.22;;;-19.62;66.41
78800;BME280;68148;55.328;86.106;2024-01-15T03:31:44;100794.28;;;-19.56;66.75
78800;BME280;68148;55.328;86.106;2024-01-15T03:34:11;100804.41;;;-19.52;66.54
78800;BME280;68148;55.328;86.106;2024-01-15T03:36:37;100818.66;;;-19.52;65.62
78800;BME280;68148;55.328;86.106;2024-01-15T03:39:03;100820.19;;;-19.59;65.66
78800;BME280;68148;55.328;86.106;2024-01-15T03:41:29;100827.78;;;-19.56;65.17
78800;BME280;68148;55.328;86.106;2024-01-15T03:43:57;100834.13;;;-19.76;65.37
78800;BME280;68148;55.328;86.106;2024-01-15T03:46:23;100828.47;;;-19.66;65.79
78800;BME280;68148;55.328;86.106;2024-01-15T03:48:49;100840.13;;;-19.69;65.15
78800;BME280;68148;55.328;86.106;2024-01-15T03:51:17;100839.16;;;-19.78;65.68
78800;BME280;68148;55.328;86.106;2024-01-15T03:53:43;100837.59;;;-19.71;66.00
78800;BME280;68148;55.328;86.106;2024-01-15T03:56:09;100846.16;;;-19.60;66.18
78800;BME280;68148;55.328;86.106;2024-01-15T03:58:35;100840.31;;;-19.60;66.00
78800;BME280;68148;55.328;86.106;2024-01-15T04:01:00;100842.03;;;-19.56;66.11
78800;BME280;68148;55.328;86.106;2024-01-15T04:03:27;100838.75;;;-19.52;66.19
78800;BME280;68148;55.328;86.106;2024-01-15T04:05:57;100845.47;;;-19.51;66.63
78800;BME280;68148;55.328;86.106;2024-01-15T04:08:23;100847.16;;;-19.50;66.89
78800;BME280;68148;55.328;86.106;2024-01-15T04:10:48;100842.19;;;-19.47;67.14
78800;BME280;68148;55.328;86.106;2024-01-15T04:13:15;100853.03;;;-19.50;66.80
78800;BME280;68148;55.328;86.106;2024-01-15T04:15:45;100861.31;;;-19.54;66.63
78800;BME280;68148;55.328;86.106;2024-01-15T04:18:12;100858.66;;;-19.64;66.55
78800;BME280;68148;55.328;86.106;2024-01-15T04:20:38;100863.88;;;-19.52;66.76
78800;BME280;68148;55.328;86.106;2024-01-15T04:23:05;100865.00;;;-19.36;66.55
78800;BME280;68148;55.328;86.106;2024-01-15T04:25:31;100874.22;;;-19.37;66.57
78800;BME280;68148;55.328;86.106;2024-01-15T04:27:57;100875.72;;;-19.47;66.58
78800;BME280;68148;55.328;86.106;2024-01-15T04:30:27;100869.00;;;-19.46;66.39
78800;BME280;68148;55.328;86.106;2024-01-15T04:32:54;100871.50;;;-19.48;66.15
78800;BME280;68148;55.328;86.106;2024-01-15T04:35:20;100885.09;;;-19.36;65.47
78800;BME280;68148;55.328;86.106;2024-01-15T04:37:45;100878.31;;;-19.40;65.60
78800;BME280;68148;55.328;86.106;2024-01-15T04:40:12;100888.38;;;-19.40;65.78
78800;BME280;68148;55.328;86.106;2024-01-15T04:42:42;100896.75;;;-19.41;66.29
78800;BME280;68148;55.328;86.106;2024-01-15T04:45:10;100894.31;;;-19.37;66.02
78800;BME280;68148;55.328;86.106;2024-01-15T04:47:38;100890.94;;;-19.39;66.24
78800;BME280;68148;55.328;86.106;2024-01-15T04:50:05;100901.00;;;-19.37;66.43
78800;BME280;68148;55.328;86.106;2024-01-15T04:52:34;100914.69;;;-19.23;66.17
78800;BME280;68148;55.328;86.106;2024-01-15T04:55:01;100918.16;;;-19.18;65.74
78800;BME280;68148;55.328;86.106;2024-01-15T04:57:27;100916.44;;;-19.19;65.60
78800;BME280;68148;55.328;86.106;2024-01-15T04:59:53;100914.00;;;-19.14;65.40
78800;BME280;68148;55.328;86.106;2024-01-15T05:02:19;100927.22;;;-19.26;64.35
78800;BME280;68148;55.328;86.106;2024-01-15T05:04:45;100918.03;;;-19.23;64.87
78800;BME280;68148;55.328;86.106;2024-01-15T05:07:11;100918.22;;;-19.13;64.06
78800;BME280;68148;55.328;86.106;2024-01-15T05:09:37;100922.56;;;-19.05;64.54
78800;BME280;68148;55.328;86.106;2024-01-15T05:12:03;100925.19;;;-18.97;63.91
78800;BME280;68148;55.328;86.106;2024-01-15T05:14:29;100932.63;;;-19.05;63.28
78800;BME280;68148;55.328;86.106;2024-01-15T05:16:56;100929.06;;;-19.16;63.29
78800;BME280;68148;55.328;86.106;2024-01-15T05:19:22;100933.34;;;-19.12;62.82
78800;BME280;68148;55.328;86.106;2024-01-15T05:24:32;100961.84;;;-19.13;62.94
78800;BME280;68148;55.328;86.106;2024-01-15T05:27:07;100961.09;;;-19.07;62.76
78800;BME280;68148;55.328;86.106;2024-01-15T05:29:33;100963.59;;;-19.09;62.38
78800;BME280;68148;55.328;86.106;2024-01-15T05:32:00;100967.78;;;-19.08;62.43
78800;BME280;68148;55.328;86.106;2024-01-15T05:34:26;100976.41;;;-18.93;63.17
78800;BME280;68148;55.328;86.106;2024-01-15T05:37:08;100976.59;;;-18.84;62.98
78800;BME280;68148;55.328;86.106;2024-01-15T05:39:34;100984.28;;;-18.77;62.45
78800;BME280;68148;55.328;86.106;2024-01-15T05:42:00;100983.13;;;-18.94;61.68
78800;BME280;68148;55.328;86.106;2024-01-15T05:47:11;101000.88;;;-18.86;61.71
78800;BME280;68148;55.328;86.106;2024-01-15T05:49:36;101007.06;;;-18.70;61.80
78800;BME280;68148;55.328;86.106;2024-01-15T05:52:05;101019.41;;;-18.83;61.04
78800;BME280;68148;55.328;86.106;2024-01-15T05:54:31;101021.19;;;-18.77;61.15
78800;BME280;68148;55.328;86.106;2024-01-15T05:56:57;101036.84;;;-18.92;61.30
78800;BME280;68148;55.328;86.106;2024-01-15T05:59:23;101027.66;;;-18.88;61.58
78800;BME280;68148;55.328;86.106;2024-01-15T06:01:49;101036.19;;;-18.83;61.21
78800;BME280;68148;55.328;86.106;2024-01-15T06:04:15;101047.94;;;-18.82;61.45
78800;BME280;68148;55.328;86.106;2024-01-15T06:06:47;101048.97;;;-18.71;61.27
78800;BME280;68148;55.328;86.106;2024-01-15T06:09:16;101055.63;;;-18.75;60.85
78800;BME280;68148;55.328;86.106;2024-01-15T06:11:42;101062.56;;;-18.61;61.16
78800;BME280;68148;55.328;86.106;2024-01-15T06:14:08;101066.75;;;-18.62;60.23
78800;BME280;68148;55.328;86.106;2024-01-15T06:16:34;101057.75;;;-18.49;60.92
78800;BME280;68148;55.328;86.106;2024-01-15T06:19:02;101050.97;;;-18.52;60.65
78800;BME280;68148;55.328;86.106;2024-01-15T06:21:33;101049.97;;;-18.61;60.92
78800;BME280;68148;55.328;86.106;2024-01-15T06:24:02;101062.69;;;-18.54;60.46
78800;BME280;68148;55.328;86.106;2024-01-15T06:26:28;101062.88;;;-18.43;60.69
78800;BME280;68148;55.328;86.106;2024-01-15T06:28:56;101068.69;;;-18.46;60.32
78800;BME280;68148;55.328;86.106;2024-01-15T06:31:24;101070.09;;;-18.61;59.68
78800;BME280;68148;55.328;86.106;2024-01-15T06:34:17;101070.09;;;-18.61;59.77
78800;BME280;68148;55.328;86.106;2024-01-15T06:36:44;101072.03;;;-18.47;60.39
78800;BME280;68148;55.328;86.106;2024-01-15T06:39:13;101089.72;;;-18.43;60.50
78800;BME280;68148;55.328;86.106;2024-01-15T06:41:39;101089.50;;;-18.56;59.64
78800;BME280;68148;55.328;86.106;2024-01-15T06:44:05;101096.34;;;-18.49;60.33
78800;BME280;68148;55.328;86.106;2024-01-15T06:46:32;101100.56;;;-18.48;59.33
78800;BME280;68148;55.328;86.106;2024-01-15T06:49:02;101100.78;;;-18.35;59.93
78800;BME280;68148;55.328;86.106;2024-01-15T06:51:29;101102.41;;;-18.37;59.19
78800;BME280;68148;55.328;86.106;2024-01-15T06:53:55;101104.91;;;-18.40;59.30
78800;BME280;68148;55.328;86.106;2024-01-15T06:56:25;101121.72;;;-18.38;59.33
78800;BME280;68148;55.328;86.106;2024-01-15T06:58:50;101122.97;;;-18.61;59.69
78800;BME280;68148;55.328;86.106;2024-01-15T07:01:16;101125.72;;;-18.49;59.85
78800;BME280;68148;55.328;86.106;2024-01-15T07:03:42;101128.25;;;-18.48;60.11
78800;BME280;68148;55.328;86.106;2024-01-15T07:06:08;101130.84;;;-18.44;59.82
78800;BME280;68148;55.328;86.106;2024-01-15T07:08:33;101140.16;;;-18.40;59.99
78800;BME280;68148;55.328;86.106;2024-01-15T07:10:59;101147.56;;;-18.48;59.52
78800;BME280;68148;55.328;86.106;2024-01-15T07:13:28;101156.78;;;-18.49;59.80
78800;BME280;68148;55.328;86.106;2024-01-15T07:15:58;101159.88;;;-18.62;59.76
78800;BME280;68148;55.328;86.106;2024-01-15T07:18:24;101169.06;;;-18.64;60.62
78800;BME280;68148;55.328;86.106;2024-01-15T07:20:51;101162.41;;;-18.62;59.97
78800;BME280;68148;55.328;86.106;2024-01-15T07:23:17;101171.06;;;-18.48;60.34
78800;BME280;68148;55.328;86.106;2024-01-15T07:25:43;101180.81;;;-18.64;59.77
78800;BME280;68148;55.328;86.106;2024-01-15T07:28:09;101175.75;;;-18.66;60.29
78800;BME280;68148;55.328;86.106;2024-01-15T07:30:35;101174.22;;;-18.58;60.59
78800;BME280;68148;55.328;86.106;2024-01-15T07:33:05;101175.84;;;-18.61;60.21
78800;BME280;68148;55.328;86.106;2024-01-15T07:35:32;101180.03;;;-18.62;59.99
78800;BME280;68148;55.328;86.106;2024-01-15T07:37:58;101181.69;;;-18.62;60.45
78800;BME280;68148;55.328;86.106;2024-01-15T07:40:23;101176.59;;;-18.64;60.47
78800;BME280;68148;55.328;86.106;2024-01-15T07:42:50;101187.63;;;-18.59;60.94
78800;BME280;68148;55.328;86.106;2024-01-15T07:45:17;101182.56;;;-18.60;61.06
78800;BME280;68148;55.328;86.106;2024-01-15T07:47:44;101189.53;;;-18.49;61.03
78800;BME280;68148;55.328;86.106;2024-01-15T07:50:28;101192.84;;;-18.50;61.28
78800;BME280;68148;55.328;86.106;2024-01-15T07:52:54;101191.13;;;-18.51;60.33
78800;BME280;68148;55.328;86.106;2024-01-15T07:55:24;101196.06;;;-18.57;60.26
78800;BME280;68148;55.328;86.106;2024-01-15T07:57:50;101199.19;;;-18.67;60.24
78800;BME280;68148;55.328;86.106;2024-01-15T08:00:16;101204.44;;;-18.58;60.60
78800;BME280;68148;55.328;86.106;2024-01-15T08:02:42;101214.44;;;-18.61;59.98
78800;BME280;68148;55.328;86.106;2024-01-15T08:05:08;101217.72;;;-18.63;60.18
78800;BME280;68148;55.328;86.106;2024-01-15T08:07:34;101205.28;;;-18.57;59.79
78800;BME280;68148;55.328;86.106;2024-01-15T08:10:03;101196.00;;;-18.58;60.30
78800;BME280;68148;55.328;86.106;2024-01-15T08:12:29;101210.09;;;-18.68;60.25
78800;BME280;68148;55.328;86.106;2024-01-15T08:14:54;101217.78;;;-18.62;60.84
78800;BME280;68148;55.328;86.106;2024-01-15T08:17:20;101215.41;;;-18.54;60.97
78800;BME280;68148;55.328;86.106;2024-01-15T08:19:46;101223.03;;;-18.51;60.67
78800;BME280;68148;55.328;86.106;2024-01-15T08:22:12;101217.25;;;-18.47;60.78
78800;BME280;68148;55.328;86.106;2024-01-15T08:24:38;101236.50;;;-18.49;60.56
78800;BME280;68148;55.328;86.106;2024-01-15T08:27:04;101231.16;;;-18.63;60.64
78800;BME280;68148;55.328;86.106;2024-01-15T08:29:30;101235.25;;;-18.68;60.88
78800;BME280;68148;55.328;86.106;2024-01-15T08:31:56;101232.00;;;-18.64;61.13
78800;BME280;68148;55.328;86.106;2024-01-15T08:34:21;101233.94;;;-18.51;61.40
78800;BME280;68148;55.328;86.106;2024-01-15T08:36:47;101229.66;;;-18.55;61.00
78800;BME280;68148;55.328;86.106;2024-01-15T08:39:13;101233.75;;;-18.61;61.44
78800;BME280;68148;55.328;86.106;2024-01-15T08:41:40;101235.34;;;-18.65;61.63
78800;BME280;68148;55.328;86.106;2024-01-15T08:44:06;101238.81;;;-18.58;60.97
78800;BME280;68148;55.328;86.106;2024-01-15T08:46:47;101248.09;;;-18.57;61.01
78800;BME280;68148;55.328;86.106;2024-01-15T08:49:12;101255.09;;;-18.42;61.27
78800;BME280;68148;55.328;86.106;2024-01-15T08:51:41;101246.69;;;-18.44;61.07
78800;BME280;68148;55.328;86.106;2024-01-15T08:54:20;101253.63;;;-18.33;61.12
78800;BME280;68148;55.328;86.106;2024-01-15T09:00:21;101284.06;;;-18.22;61.26
78800;BME280;68148;55.328;86.106;2024-01-15T09:02:58;101284.91;;;-18.23;60.56
78800;BME280;68148;55.328;86.106;2024-01-15T09:05:49;101288.94;;;-18.30;60.20
78800;BME280;68148;55.328;86.106;2024-01-15T09:08:15;101283.97;;;-18.27;60.84
78800;BME280;68148;55.328;86.106;2024-01-15T09:10:41;101283.03;;;-18.32;60.93
78800;BME280;68148;55.328;86.106;2024-01-15T09:13:07;101294.41;;;-18.10;61.16
78800;BME280;68148;55.328;86.106;2024-01-15T09:15:33;101287.38;;;-18.25;60.37
78800;BME280;68148;55.328;86.106;2024-01-15T09:18:01;101295.75;;;-18.26;60.55
78800;BME280;68148;55.328;86.106;2024-01-15T09:20:26;101301.53;;;-18.31;61.51
78800;BME280;68148;55.328;86.106;2024-01-15T09:22:52;101315.91;;;-18.24;61.44
78800;BME280;68148;55.328;86.106;2024-01-15T09:25:18;101305.91;;;-18.23;61.15
78800;BME280;68148;55.328;86.106;2024-01-15T09:27:52;101303.28;;;-18.27;61.33
78800;BME280;68148;55.328;86.106;2024-01-15T09:30:18;101303.13;;;-18.35;61.07
78800;BME280;68148;55.328;86.106;2024-01-15T09:32:44;101310.78;;;-18.29;61.95
78800;BME280;68148;55.328;86.106;2024-01-15T09:35:10;101315.88;;;-18.27;61.73
78800;BME280;68148;55.328;86.106;2024-01-15T09:37:36;101317.56;;;-18.26;62.42
78800;BME280;68148;55.328;86.106;2024-01-15T09:40:02;101322.59;;;-18.28;62.92
78800;BME280;68148;55.328;86.106;2024-01-15T09:42:29;101330.81;;;-18.36;63.13
78800;BME280;68148;55.328;86.106;2024-01-15T09:44:55;101334.19;;;-18.34;63.50
78800;BME280;68148;55.328;86.106;2024-01-15T09:47:21;101324.09;;;-18.36;63.25
78800;BME280;68148;55.328;86.106;2024-01-15T09:49:47;101315.69;;;-18.36;63.46
78800;BME280;68148;55.328;86.106;2024-01-15T09:52:14;101323.25;;;-18.36;63.63
78800;BME280;68148;55.328;86.106;2024-01-15T09:54:46;101318.22;;;-18.36;64.23
78800;BME280;68148;55.328;86.106;2024-01-15T09:57:11;101326.53;;;-18.39;64.89
78800;BME280;68148;55.328;86.106;2024-01-15T09:59:38;101333.88;;;-18.48;64.78
78800;BME280;68148;55.328;86.106;2024-01-15T10:02:06;101328.81;;;-18.50;65.30
78800;BME280;68148;55.328;86.106;2024-01-15T10:04:32;101327.00;;;-18.55;65.57
78800;BME280;68148;55.328;86.106;2024-01-15T10:07:00;101337.19;;;-18.51;65.42
78800;BME280;68148;55.328;86.106;2024-01-15T10:12:11;101338.00;;;-18.52;65.98
78800;BME280;68148;55.328;86.106;2024-01-15T10:14:37;101336.22;;;-18.56;66.29
78800;BME280;68148;55.328;86.106;2024-01-15T10:17:13;101340.41;;;-18.56;66.43
78800;BME280;68148;55.328;86.106;2024-01-15T10:19:39;101350.56;;;-18.53;66.83
78800;BME280;68148;55.328;86.106;2024-01-15T10:22:05;101344.81;;;-18.48;67.26
78800;BME280;68148;55.328;86.106;2024-01-15T10:24:31;101345.69;;;-18.46;66.80
78800;BME280;68148;55.328;86.106;2024-01-15T10:27:05;101347.44;;;-18.43;67.27
78800;BME280;68148;55.328;86.106;2024-01-15T10:29:31;101339.75;;;-18.49;68.14
78800;BME280;68148;55.328;86.106;2024-01-15T10:32:00;101342.28;;;-18.48;67.29
78800;BME280;68148;55.328;86.106;2024-01-15T10:34:30;101350.50;;;-18.55;67.37
78800;BME280;68148;55.328;86.106;2024-01-15T10:36:56;101359.78;;;-18.54;67.61
78800;BME280;68148;55.328;86.106;2024-01-15T10:39:23;101356.41;;;-18.54;68.00
78800;BME280;68148;55.328;86.106;2024-01-15T10:41:49;101349.03;;;-18.47;68.38
78800;BME280;68148;55.328;86.106;2024-01-15T10:44:34;101344.72;;;-18.51;68.15
78800;BME280;68148;55.328;86.106;2024-01-15T10:47:00;101345.63;;;-18.49;68.22
78800;BME280;68148;55.328;86.106;2024-01-15T10:49:26;101349.06;;;-18.45;68.93
78800;BME280;68148;55.328;86.106;2024-01-15T10:51:53;101347.34;;;-18.46;68.91
78800;BME280;68148;55.328;86.106;2024-01-15T10:54:19;101347.31;;;-18.49;69.01
78800;BME280;68148;55.328;86.106;2024-01-15T10:56:46;101354.75;;;-18.54;69.45
78800;BME280;68148;55.328;86.106;2024-01-15T10:59:13;101337.91;;;-18.56;69.86
78800;BME280;68148;55.328;86.106;2024-01-15T11:01:39;101338.00;;;-18.52;69.94
78800;BME280;68148;55.328;86.106;2024-01-15T11:04:08;101343.88;;;-18.53;70.51
78800;BME280;68148;55.328;86.106;2024-01-15T11:06:45;101349.94;;;-18.44;70.81
78800;BME280;68148;55.328;86.106;2024-01-15T11:09:12;101349.94;;;-18.44;70.42
78800;BME280;68148;55.328;86.106;2024-01-15T11:11:43;101360.91;;;-18.41;70.30
78800;BME280;68148;55.328;86.106;2024-01-15T11:14:09;101352.38;;;-18.48;70.64
78800;BME280;68148;55.328;86.106;2024-01-15T11:17:01;101356.56;;;-18.47;71.28
78800;BME280;68148;55.328;86.106;2024-01-15T11:19:37;101357.31;;;-18.51;70.94
78800;BME280;68148;55.328;86.106;2024-01-15T11:22:03;101371.69;;;-18.47;70.90
78800;BME280;68148;55.328;86.106;2024-01-15T11:24:41;101364.97;;;-18.48;71.70
78800;BME280;68148;55.328;86.106;2024-01-15T11:27:08;101370.84;;;-18.47;71.45
78800;BME280;68148;55.328;86.106;2024-01-15T11:29:36;101362.44;;;-18.48;71.62
78800;BME280;68148;55.328;86.106;2024-01-15T11:32:07;101368.34;;;-18.46;71.32
78800;BME280;68148;55.328;86.106;2024-01-15T11:37:20;101368.13;;;-18.55;72.44
78800;BME280;68148;55.328;86.106;2024-01-15T11:39:46;101367.28;;;-18.57;72.37
78800;BME280;68148;55.328;86.106;2024-01-15T11:42:13;101373.97;;;-18.57;73.11
78800;BME280;68148;55.328;86.106;2024-01-15T11:44:39;101368.19;;;-18.53;72.76
78800;BME280;68148;55.328;86.106;2024-01-15T11:47:06;101377.53;;;-18.49;72.76
78800;BME280;68148;55.328;86.106;2024-01-15T11:49:42;101386.59;;;-18.56;72.74
78800;BME280;68148;55.328;86.106;2024-01-15T11:52:17;101383.13;;;-18.61;73.30
78800;BME280;68148;55.328;86.106;2024-01-15T12:00:19;101384.91;;;-18.57;74.26
78800;BME280;68148;55.328;86.106;2024-01-15T12:02:46;101388.38;;;-18.52;74.20
78800;BME280;68148;55.328;86.106;2024-01-15T12:05:16;101387.53;;;-18.51;73.93
78800;BME280;68148;55.328;86.106;2024-01-15T12:07:44;101378.41;;;-18.46;73.61
78800;BME280;68148;55.328;86.106;2024-01-15T12:10:11;101377.56;;;-18.46;74.43
78800;BME280;68148;55.328;86.106;2024-01-15T12:15:24;101379.31;;;-18.45;74.05
78800;BME280;68148;55.328;86.106;2024-01-15T12:17:51;101383.53;;;-18.42;74.39
78800;BME280;68148;55.328;86.106;2024-01-15T12:20:17;101382.81;;;-18.37;74.05
78800;BME280;68148;55.328;86.106;2024-01-15T12:22:44;101386.31;;;-18.32;73.58
78800;BME280;68148;55.328;86.106;2024-01-15T12:25:10;101383.81;;;-18.30;73.66
78800;BME280;68148;55.328;86.106;2024-01-15T12:27:36;101393.16;;;-18.25;73.17
78800;BME280;68148;55.328;86.106;2024-01-15T12:30:02;101392.41;;;-18.22;72.72
78800;BME280;68148;55.328;86.106;2024-01-15T12:32:28;101395.75;;;-18.22;72.46
78800;BME280;68148;55.328;86.106;2024-01-15T12:34:54;101397.50;;;-18.19;72.37
78800;BME280;68148;55.328;86.106;2024-01-15T12:37:20;101399.97;;;-18.21;72.24
78800;BME280;68148;55.328;86.106;2024-01-15T12:39:47;101403.50;;;-18.14;71.92
78800;BME280;68148;55.328;86.106;2024-01-15T12:42:18;101404.25;;;-18.16;72.12
78800;BME280;68148;55.328;86.106;2024-01-15T12:44:45;101402.59;;;-18.16;71.72
78800;BME280;68148;55.328;86.106;2024-01-15T12:47:12;101410.88;;;-18.22;71.21
78800;BME280;68148;55.328;86.106;2024-01-15T12:49:38;101408.56;;;-18.12;71.41
78800;BME280;68148;55.328;86.106;2024-01-15T12:52:08;101416.94;;;-18.13;71.44
78800;BME280;68148;55.328;86.106;2024-01-15T12:54:34;101420.59;;;-18.01;71.81
78800;BME280;68148;55.328;86.106;2024-01-15T12:57:00;101415.47;;;-18.04;70.98
78800;BME280;68148;55.328;86.106;2024-01-15T12:59:26;101423.69;;;-18.12;70.42